sensor_id;sensor_type;location;lat;lon;timestamp;temperature;humidity
14049;DHT22;7099;53.922;10.728;2022-08-14T00:02:59;21.60;99.90
14049;DHT22;7099;53.922;10.728;2022-08-14T00:07:24;21.50;99.90
14049;DHT22;7099;53.922;10.728;2022-08-14T00:11:50;21.50;99.90
14049;DHT22;7099;53.922;10.728;2022-08-14T00:16:17;21.40;99.90
14049;DHT22;7099;53.922;10.728;2022-08-14T00:21:03;21.40;99.90
14049;DHT22;7099;53.922;10.728;2022-08-14T00:25:35;21.30;99.90
14049;DHT22;7099;53.922;10.728;2022-08-14T00:30:08;21.30;99.90
14049;DHT22;7099;53.922;10.728;2022-08-14T00:34:38;21.20;99.90
14049;DHT22;7099;53.922;10.728;2022-08-14T00:39:13;21.20;99.90
14049;DHT22;7099;53.922;10.728;2022-08-14T00:43:44;21.10;99.90
14049;DHT22;7099;53.922;10.728;2022-08-14T00:48:10;21.10;99.90
14049;DHT22;7099;53.922;10.728;2022-08-14T00:52:57;21.00;99.90
14049;DHT22;7099;53.922;10.728;2022-08-14T00:57:32;21.00;99.90
14049;DHT22;7099;53.922;10.728;2022-08-14T01:02:00;21.00;99.90
14049;DHT22;7099;53.922;10.728;2022-08-14T01:06:28;20.90;99.90
14049;DHT22;7099;53.922;10.728;2022-08-14T01:10:58;20.90;99.90
14049;DHT22;7099;53.922;10.728;2022-08-14T01:15:23;21.00;99.90
14049;DHT22;7099;53.922;10.728;2022-08-14T01:20:10;20.90;99.90
14049;DHT22;7099;53.922;10.728;2022-08-14T01:24:55;20.90;99.90
14049;DHT22;7099;53.922;10.728;2022-08-14T01:29:22;20.90;99.90
14049;DHT22;7099;53.922;10.728;2022-08-14T01:34:08;20.90;99.90
14049;DHT22;7099;53.922;10.728;2022-08-14T01:38:55;20.90;99.90
14049;DHT22;7099;53.922;10.728;2022-08-14T01:43:23;20.90;99.90
14049;DHT22;7099;53.922;10.728;2022-08-14T01:47:59;20.90;99.90
14049;DHT22;7099;53.922;10.728;2022-08-14T01:52:35;20.90;99.90
14049;DHT22;7099;53.922;10.728;2022-08-14T01:57:21;21.00;99.90
14049;DHT22;7099;53.922;10.728;2022-08-14T02:01:52;20.90;99.90
14049;DHT22;7099;53.922;10.728;2022-08-14T02:06:23;21.00;99.90
14049;DHT22;7099;53.922;10.728;2022-08-14T02:10:58;21.00;99.90
14049;DHT22;7099;53.922;10.728;2022-08-14T02:15:44;21.00;99.90
14049;DHT22;7099;53.922;10.728;2022-08-14T02:20:09;21.00;99.90
14049;DHT22;7099;53.922;10.728;2022-08-14T02:24:36;21.00;99.90
14049;DHT22;7099;53.922;10.728;2022-08-14T02:29:11;21.00;99.90
14049;DHT22;7099;53.922;10.728;2022-08-14T02:33:41;21.10;99.90
14049;DHT22;7099;53.922;10.728;2022-08-14T02:38:07;21.10;99.90
14049;DHT22;7099;53.922;10.728;2022-08-14T02:42:46;21.10;99.90
14049;DHT22;7099;53.922;10.728;2022-08-14T02:47:21;21.10;99.90
14049;DHT22;7099;53.922;10.728;2022-08-14T02:51:47;21.10;99.90
14049;DHT22;7099;53.922;10.728;2022-08-14T02:56:16;21.10;99.90
14049;DHT22;7099;53.922;10.728;2022-08-14T03:01:04;21.10;99.90
14049;DHT22;7099;53.922;10.728;2022-08-14T03:05:32;21.10;99.90
14049;DHT22;7099;53.922;10.728;2022-08-14T03:10:01;21.10;99.90
14049;DHT22;7099;53.922;10.728;2022-08-14T03:14:46;21.10;99.90
14049;DHT22;7099;53.922;10.728;2022-08-14T03:19:16;21.10;99.90
14049;DHT22;7099;53.922;10.728;2022-08-14T03:23:46;21.10;99.90
14049;DHT22;7099;53.922;10.728;2022-08-14T03:28:13;21.10;99.90
14049;DHT22;7099;53.922;10.728;2022-08-14T03:32:57;21.10;99.90
14049;DHT22;7099;53.922;10.728;2022-08-14T03:37:23;21.10;99.90
14049;DHT22;7099;53.922;10.728;2022-08-14T03:42:10;21.10;99.90
14049;DHT22;7099;53.922;10.728;2022-08-14T03:46:43;21.10;99.90
14049;DHT22;7099;53.922;10.728;2022-08-14T03:51:20;21.10;99.90
14049;DHT22;7099;53.922;10.728;2022-08-14T03:55:46;21.10;99.90
14049;DHT22;7099;53.922;10.728;2022-08-14T04:00:16;21.10;99.90
14049;DHT22;7099;53.922;10.728;2022-08-14T04:05:02;21.10;99.90
14049;DHT22;7099;53.922;10.728;2022-08-14T04:09:36;21.10;99.90
14049;DHT22;7099;53.922;10.728;2022-08-14T04:14:03;21.10;99.90
14049;DHT22;7099;53.922;10.728;2022-08-14T04:18:31;21.10;99.90
14049;DHT22;7099;53.922;10.728;2022-08-14T04:22:57;21.10;99.90
14049;DHT22;7099;53.922;10.728;2022-08-14T04:27:25;21.10;99.90
14049;DHT22;7099;53.922;10.728;2022-08-14T04:31:51;21.10;99.90
14049;DHT22;7099;53.922;10.728;2022-08-14T04:36:37;21.10;99.90
14049;DHT22;7099;53.922;10.728;2022-08-14T04:41:23;21.10;99.90
14049;DHT22;7099;53.922;10.728;2022-08-14T04:46:15;21.20;99.90
14049;DHT22;7099;53.922;10.728;2022-08-14T04:51:06;21.20;99.90
14049;DHT22;7099;53.922;10.728;2022-08-14T04:55:33;21.20;99.90
14049;DHT22;7099;53.922;10.728;2022-08-14T04:59:58;21.20;99.90
14049;DHT22;7099;53.922;10.728;2022-08-14T05:04:23;21.30;99.90
14049;DHT22;7099;53.922;10.728;2022-08-14T05:08:49;21.30;99.90
14049;DHT22;7099;53.922;10.728;2022-08-14T05:13:26;21.40;99.90
14049;DHT22;7099;53.922;10.728;2022-08-14T05:17:55;21.40;99.90
14049;DHT22;7099;53.922;10.728;2022-08-14T05:22:40;21.50;99.90
14049;DHT22;7099;53.922;10.728;2022-08-14T05:27:06;21.50;99.90
14049;DHT22;7099;53.922;10.728;2022-08-14T05:31:33;21.60;99.90
14049;DHT22;7099;53.922;10.728;2022-08-14T05:36:09;21.70;99.90
14049;DHT22;7099;53.922;10.728;2022-08-14T05:40:41;21.80;99.90
14049;DHT22;7099;53.922;10.728;2022-08-14T05:45:07;21.80;99.90
14049;DHT22;7099;53.922;10.728;2022-08-14T05:49:37;21.90;99.90
14049;DHT22;7099;53.922;10.728;2022-08-14T05:54:02;22.00;99.90
14049;DHT22;7099;53.922;10.728;2022-08-14T05:58:37;22.10;99.90
14049;DHT22;7099;53.922;10.728;2022-08-14T06:03:09;22.20;99.90
14049;DHT22;7099;53.922;10.728;2022-08-14T06:07:38;22.40;99.90
14049;DHT22;7099;53.922;10.728;2022-08-14T06:12:04;22.50;99.90
14049;DHT22;7099;53.922;10.728;2022-08-14T06:16:30;22.60;99.90
14049;DHT22;7099;53.922;10.728;2022-08-14T06:20:57;22.70;99.90
14049;DHT22;7099;53.922;10.728;2022-08-14T06:25:23;22.80;99.90
14049;DHT22;7099;53.922;10.728;2022-08-14T06:29:49;22.90;99.90
14049;DHT22;7099;53.922;10.728;2022-08-14T06:34:15;23.00;99.90
14049;DHT22;7099;53.922;10.728;2022-08-14T06:39:00;23.10;99.90
14049;DHT22;7099;53.922;10.728;2022-08-14T06:43:26;23.20;99.90
14049;DHT22;7099;53.922;10.728;2022-08-14T06:47:56;23.20;99.90
14049;DHT22;7099;53.922;10.728;2022-08-14T06:52:23;23.20;99.90
14049;DHT22;7099;53.922;10.728;2022-08-14T06:56:48;23.50;99.90
14049;DHT22;7099;53.922;10.728;2022-08-14T07:01:20;23.60;99.90
14049;DHT22;7099;53.922;10.728;2022-08-14T07:06:05;23.70;99.90
14049;DHT22;7099;53.922;10.728;2022-08-14T07:10:52;23.80;99.90
14049;DHT22;7099;53.922;10.728;2022-08-14T07:15:20;23.80;99.90
14049;DHT22;7099;53.922;10.728;2022-08-14T07:19:46;24.00;99.90
14049;DHT22;7099;53.922;10.728;2022-08-14T07:24:15;24.20;99.90
14049;DHT22;7099;53.922;10.728;2022-08-14T07:28:50;24.40;99.90
14049;DHT22;7099;53.922;10.728;2022-08-14T07:33:15;24.50;99.90
14049;DHT22;7099;53.922;10.728;2022-08-14T07:37:47;24.60;99.90
14049;DHT22;7099;53.922;10.728;2022-08-14T07:42:16;24.90;99.90
14049;DHT22;7099;53.922;10.728;2022-08-14T07:46:46;25.10;99.90
14049;DHT22;7099;53.922;10.728;2022-08-14T07:51:13;25.30;99.90
14049;DHT22;7099;53.922;10.728;2022-08-14T07:55:40;25.60;99.90
14049;DHT22;7099;53.922;10.728;2022-08-14T08:00:09;25.80;99.90
14049;DHT22;7099;53.922;10.728;2022-08-14T08:04:59;26.00;99.90
14049;DHT22;7099;53.922;10.728;2022-08-14T08:09:26;26.20;99.90
14049;DHT22;7099;53.922;10.728;2022-08-14T08:13:57;26.30;99.90
14049;DHT22;7099;53.922;10.728;2022-08-14T08:18:24;26.40;99.90
14049;DHT22;7099;53.922;10.728;2022-08-14T08:22:54;26.60;99.90
14049;DHT22;7099;53.922;10.728;2022-08-14T08:27:29;26.70;99.90
14049;DHT22;7099;53.922;10.728;2022-08-14T08:31:55;26.90;99.90
14049;DHT22;7099;53.922;10.728;2022-08-14T08:36:39;27.00;99.90
14049;DHT22;7099;53.922;10.728;2022-08-14T08:41:11;27.20;99.90
14049;DHT22;7099;53.922;10.728;2022-08-14T08:45:36;27.30;99.90
14049;DHT22;7099;53.922;10.728;2022-08-14T08:50:02;27.50;99.90
14049;DHT22;7099;53.922;10.728;2022-08-14T08:54:53;27.60;99.90
14049;DHT22;7099;53.922;10.728;2022-08-14T08:59:29;27.70;99.90
14049;DHT22;7099;53.922;10.728;2022-08-14T09:04:04;27.70;99.90
14049;DHT22;7099;53.922;10.728;2022-08-14T09:08:44;27.70;99.90
14049;DHT22;7099;53.922;10.728;2022-08-14T09:13:11;27.80;99.90
14049;DHT22;7099;53.922;10.728;2022-08-14T09:17:36;27.90;99.90
14049;DHT22;7099;53.922;10.728;2022-08-14T09:22:05;27.90;99.90
14049;DHT22;7099;53.922;10.728;2022-08-14T09:26:50;27.90;99.90
14049;DHT22;7099;53.922;10.728;2022-08-14T09:31:17;28.00;99.90
14049;DHT22;7099;53.922;10.728;2022-08-14T09:46:27;28.20;99.90
14049;DHT22;7099;53.922;10.728;2022-08-14T09:50:55;28.20;99.90
14049;DHT22;7099;53.922;10.728;2022-08-14T09:55:23;28.30;99.90
14049;DHT22;7099;53.922;10.728;2022-08-14T09:59:52;28.40;99.90
14049;DHT22;7099;53.922;10.728;2022-08-14T10:04:21;28.60;99.90
14049;DHT22;7099;53.922;10.728;2022-08-14T10:09:03;28.90;99.90
14049;DHT22;7099;53.922;10.728;2022-08-14T10:13:36;29.00;99.90
14049;DHT22;7099;53.922;10.728;2022-08-14T10:18:18;29.20;99.90
14049;DHT22;7099;53.922;10.728;2022-08-14T10:22:45;29.50;99.90
14049;DHT22;7099;53.922;10.728;2022-08-14T10:27:24;29.60;99.90
14049;DHT22;7099;53.922;10.728;2022-08-14T10:31:56;29.70;99.90
14049;DHT22;7099;53.922;10.728;2022-08-14T10:36:34;29.90;99.90
14049;DHT22;7099;53.922;10.728;2022-08-14T10:41:12;30.10;99.90
14049;DHT22;7099;53.922;10.728;2022-08-14T10:45:39;30.10;99.90
14049;DHT22;7099;53.922;10.728;2022-08-14T10:50:16;30.10;99.90
14049;DHT22;7099;53.922;10.728;2022-08-14T10:54:43;30.10;99.90
14049;DHT22;7099;53.922;10.728;2022-08-14T10:59:11;30.20;99.90
14049;DHT22;7099;53.922;10.728;2022-08-14T11:03:41;30.20;99.90
14049;DHT22;7099;53.922;10.728;2022-08-14T11:08:30;30.10;99.90
14049;DHT22;7099;53.922;10.728;2022-08-14T11:12:56;30.00;99.90
14049;DHT22;7099;53.922;10.728;2022-08-14T11:17:22;29.90;99.90
14049;DHT22;7099;53.922;10.728;2022-08-14T11:21:49;29.90;99.90
14049;DHT22;7099;53.922;10.728;2022-08-14T11:26:20;30.10;99.90
14049;DHT22;7099;53.922;10.728;2022-08-14T11:30:49;30.20;99.90
14049;DHT22;7099;53.922;10.728;2022-08-14T11:35:20;30.10;99.90
14049;DHT22;7099;53.922;10.728;2022-08-14T11:39:47;30.20;99.90
14049;DHT22;7099;53.922;10.728;2022-08-14T11:44:15;30.20;99.90
14049;DHT22;7099;53.922;10.728;2022-08-14T11:49:00;30.20;99.90
14049;DHT22;7099;53.922;10.728;2022-08-14T11:53:30;30.30;99.90
14049;DHT22;7099;53.922;10.728;2022-08-14T11:58:03;30.30;99.90
14049;DHT22;7099;53.922;10.728;2022-08-14T12:02:32;30.40;99.90
14049;DHT22;7099;53.922;10.728;2022-08-14T12:07:18;30.50;99.90
14049;DHT22;7099;53.922;10.728;2022-08-14T12:11:44;30.60;99.90
14049;DHT22;7099;53.922;10.728;2022-08-14T12:16:13;30.50;99.90
14049;DHT22;7099;53.922;10.728;2022-08-14T12:20:47;30.50;99.90
14049;DHT22;7099;53.922;10.728;2022-08-14T12:25:21;30.40;99.90
14049;DHT22;7099;53.922;10.728;2022-08-14T12:29:52;30.60;99.90
14049;DHT22;7099;53.922;10.728;2022-08-14T12:34:18;30.50;99.90
14049;DHT22;7099;53.922;10.728;2022-08-14T12:38:48;30.40;99.90
14049;DHT22;7099;53.922;10.728;2022-08-14T12:43:19;30.40;99.90
14049;DHT22;7099;53.922;10.728;2022-08-14T12:47:45;30.50;99.90
14049;DHT22;7099;53.922;10.728;2022-08-14T12:52:15;30.40;99.90
14049;DHT22;7099;53.922;10.728;2022-08-14T12:57:11;30.40;99.90
14049;DHT22;7099;53.922;10.728;2022-08-14T13:01:45;30.40;99.90
14049;DHT22;7099;53.922;10.728;2022-08-14T13:06:30;30.30;99.90
14049;DHT22;7099;53.922;10.728;2022-08-14T13:10:58;30.30;99.90
14049;DHT22;7099;53.922;10.728;2022-08-14T13:15:28;30.30;99.90
14049;DHT22;7099;53.922;10.728;2022-08-14T13:19:56;30.20;99.90
14049;DHT22;7099;53.922;10.728;2022-08-14T13:24:23;30.20;99.90
14049;DHT22;7099;53.922;10.728;2022-08-14T13:28:52;30.20;99.90
14049;DHT22;7099;53.922;10.728;2022-08-14T13:33:28;30.20;99.90
14049;DHT22;7099;53.922;10.728;2022-08-14T13:37:56;30.20;99.90
14049;DHT22;7099;53.922;10.728;2022-08-14T13:42:24;30.20;99.90
14049;DHT22;7099;53.922;10.728;2022-08-14T13:46:54;30.00;99.90
14049;DHT22;7099;53.922;10.728;2022-08-14T13:51:23;30.10;99.90
14049;DHT22;7099;53.922;10.728;2022-08-14T13:55:54;30.50;99.90
14049;DHT22;7099;53.922;10.728;2022-08-14T14:00:22;30.80;99.90
14049;DHT22;7099;53.922;10.728;2022-08-14T14:05:00;31.00;99.90
14049;DHT22;7099;53.922;10.728;2022-08-14T14:09:29;31.10;99.90
14049;DHT22;7099;53.922;10.728;2022-08-14T14:14:01;31.10;99.90
14049;DHT22;7099;53.922;10.728;2022-08-14T14:18:29;31.20;99.90
14049;DHT22;7099;53.922;10.728;2022-08-14T14:22:59;31.30;99.90
14049;DHT22;7099;53.922;10.728;2022-08-14T14:27:35;31.60;99.90
14049;DHT22;7099;53.922;10.728;2022-08-14T14:32:06;31.60;99.90
14049;DHT22;7099;53.922;10.728;2022-08-14T14:36:33;31.70;99.90
14049;DHT22;7099;53.922;10.728;2022-08-14T14:41:00;32.00;99.90
14049;DHT22;7099;53.922;10.728;2022-08-14T14:45:29;31.90;99.90
14049;DHT22;7099;53.922;10.728;2022-08-14T14:49:57;31.70;99.90
14049;DHT22;7099;53.922;10.728;2022-08-14T14:54:26;31.60;99.90
14049;DHT22;7099;53.922;10.728;2022-08-14T14:58:56;31.30;99.90
14049;DHT22;7099;53.922;10.728;2022-08-14T15:03:22;31.10;99.90
14049;DHT22;7099;53.922;10.728;2022-08-14T15:07:49;31.00;99.90
14049;DHT22;7099;53.922;10.728;2022-08-14T15:12:16;31.10;99.90
14049;DHT22;7099;53.922;10.728;2022-08-14T15:17:02;31.30;99.90
14049;DHT22;7099;53.922;10.728;2022-08-14T15:21:30;31.50;99.90
14049;DHT22;7099;53.922;10.728;2022-08-14T15:25:56;31.50;99.90
14049;DHT22;7099;53.922;10.728;2022-08-14T15:30:22;31.40;99.90
14049;DHT22;7099;53.922;10.728;2022-08-14T15:34:56;31.30;99.90
14049;DHT22;7099;53.922;10.728;2022-08-14T15:39:22;31.60;99.90
14049;DHT22;7099;53.922;10.728;2022-08-14T15:43:48;31.60;99.90
14049;DHT22;7099;53.922;10.728;2022-08-14T15:48:18;31.80;99.90
14049;DHT22;7099;53.922;10.728;2022-08-14T15:52:47;31.80;99.90
14049;DHT22;7099;53.922;10.728;2022-08-14T15:57:12;31.90;99.90
14049;DHT22;7099;53.922;10.728;2022-08-14T16:01:38;31.90;99.90
14049;DHT22;7099;53.922;10.728;2022-08-14T16:06:19;31.70;99.90
14049;DHT22;7099;53.922;10.728;2022-08-14T16:10:47;31.60;99.90
14049;DHT22;7099;53.922;10.728;2022-08-14T16:15:12;31.60;99.90
14049;DHT22;7099;53.922;10.728;2022-08-14T16:19:41;31.80;99.90
14049;DHT22;7099;53.922;10.728;2022-08-14T16:24:11;31.60;99.90
14049;DHT22;7099;53.922;10.728;2022-08-14T16:28:56;31.50;99.90
14049;DHT22;7099;53.922;10.728;2022-08-14T16:33:32;31.20;99.90
14049;DHT22;7099;53.922;10.728;2022-08-14T16:38:18;31.10;99.90
14049;DHT22;7099;53.922;10.728;2022-08-14T16:43:10;30.70;99.90
14049;DHT22;7099;53.922;10.728;2022-08-14T16:47:38;30.50;99.90
14049;DHT22;7099;53.922;10.728;2022-08-14T16:52:06;30.30;99.90
14049;DHT22;7099;53.922;10.728;2022-08-14T16:56:52;30.00;99.90
14049;DHT22;7099;53.922;10.728;2022-08-14T17:01:19;29.80;99.90
14049;DHT22;7099;53.922;10.728;2022-08-14T17:05:49;29.60;99.90
14049;DHT22;7099;53.922;10.728;2022-08-14T17:10:14;29.40;99.90
14049;DHT22;7099;53.922;10.728;2022-08-14T17:15:08;29.30;99.90
14049;DHT22;7099;53.922;10.728;2022-08-14T17:19:39;29.20;99.90
14049;DHT22;7099;53.922;10.728;2022-08-14T17:24:09;29.00;99.90
14049;DHT22;7099;53.922;10.728;2022-08-14T17:33:44;28.70;99.90
14049;DHT22;7099;53.922;10.728;2022-08-14T17:38:16;28.50;99.90
14049;DHT22;7099;53.922;10.728;2022-08-14T17:43:02;28.20;99.90
14049;DHT22;7099;53.922;10.728;2022-08-14T17:47:28;28.10;99.90
14049;DHT22;7099;53.922;10.728;2022-08-14T17:56:43;27.90;99.90
14049;DHT22;7099;53.922;10.728;2022-08-14T18:01:11;27.70;99.90
14049;DHT22;7099;53.922;10.728;2022-08-14T18:05:41;27.60;99.90
14049;DHT22;7099;53.922;10.728;2022-08-14T18:10:28;27.40;99.90
14049;DHT22;7099;53.922;10.728;2022-08-14T18:15:15;27.30;99.90
14049;DHT22;7099;53.922;10.728;2022-08-14T18:19:41;27.10;99.90
14049;DHT22;7099;53.922;10.728;2022-08-14T18:24:09;26.90;99.90
14049;DHT22;7099;53.922;10.728;2022-08-14T18:28:54;26.80;99.90
14049;DHT22;7099;53.922;10.728;2022-08-14T18:33:23;26.60;99.90
14049;DHT22;7099;53.922;10.728;2022-08-14T18:37:50;26.50;99.90
14049;DHT22;7099;53.922;10.728;2022-08-14T18:42:52;26.40;99.90
14049;DHT22;7099;53.922;10.728;2022-08-14T18:47:27;26.20;99.90
14049;DHT22;7099;53.922;10.728;2022-08-14T18:52:13;26.10;99.90
14049;DHT22;7099;53.922;10.728;2022-08-14T18:57:08;26.00;99.90
14049;DHT22;7099;53.922;10.728;2022-08-14T19:01:35;25.90;99.90
14049;DHT22;7099;53.922;10.728;2022-08-14T19:06:03;25.80;99.90
14049;DHT22;7099;53.922;10.728;2022-08-14T19:10:33;25.70;99.90
14049;DHT22;7099;53.922;10.728;2022-08-14T19:15:08;25.60;99.90
14049;DHT22;7099;53.922;10.728;2022-08-14T19:19:37;25.60;99.90
14049;DHT22;7099;53.922;10.728;2022-08-14T19:24:16;25.40;99.90
14049;DHT22;7099;53.922;10.728;2022-08-14T19:28:54;25.30;99.90
14049;DHT22;7099;53.922;10.728;2022-08-14T19:43:09;25.00;99.90
14049;DHT22;7099;53.922;10.728;2022-08-14T19:48:12;24.80;99.90
14049;DHT22;7099;53.922;10.728;2022-08-14T19:52:39;24.70;99.90
14049;DHT22;7099;53.922;10.728;2022-08-14T19:57:24;24.60;99.90
14049;DHT22;7099;53.922;10.728;2022-08-14T20:01:53;24.60;99.90
14049;DHT22;7099;53.922;10.728;2022-08-14T20:06:21;24.40;99.90
14049;DHT22;7099;53.922;10.728;2022-08-14T20:10:51;24.30;99.90
14049;DHT22;7099;53.922;10.728;2022-08-14T20:15:39;24.20;99.90
14049;DHT22;7099;53.922;10.728;2022-08-14T20:20:21;24.10;99.90
14049;DHT22;7099;53.922;10.728;2022-08-14T20:25:13;24.10;99.90
14049;DHT22;7099;53.922;10.728;2022-08-14T20:29:40;24.00;99.90
14049;DHT22;7099;53.922;10.728;2022-08-14T20:34:08;23.90;99.90
14049;DHT22;7099;53.922;10.728;2022-08-14T20:38:56;23.90;99.90
14049;DHT22;7099;53.922;10.728;2022-08-14T20:43:26;23.80;99.90
14049;DHT22;7099;53.922;10.728;2022-08-14T20:48:24;23.70;99.90
14049;DHT22;7099;53.922;10.728;2022-08-14T20:53:32;23.60;99.90
14049;DHT22;7099;53.922;10.728;2022-08-14T20:58:00;23.50;99.90
14049;DHT22;7099;53.922;10.728;2022-08-14T21:02:47;23.50;99.90
14049;DHT22;7099;53.922;10.728;2022-08-14T21:07:14;23.40;99.90
14049;DHT22;7099;53.922;10.728;2022-08-14T21:12:00;23.30;99.90
14049;DHT22;7099;53.922;10.728;2022-08-14T21:16:27;23.20;99.90
14049;DHT22;7099;53.922;10.728;2022-08-14T21:21:04;23.10;99.90
14049;DHT22;7099;53.922;10.728;2022-08-14T21:25:33;23.10;99.90
14049;DHT22;7099;53.922;10.728;2022-08-14T21:29:59;23.00;99.90
14049;DHT22;7099;53.922;10.728;2022-08-14T21:34:25;22.90;99.90
14049;DHT22;7099;53.922;10.728;2022-08-14T21:38:57;22.80;99.90
14049;DHT22;7099;53.922;10.728;2022-08-14T21:43:26;22.70;99.90
14049;DHT22;7099;53.922;10.728;2022-08-14T21:47:54;22.70;99.90
14049;DHT22;7099;53.922;10.728;2022-08-14T21:52:20;22.70;99.90
14049;DHT22;7099;53.922;10.728;2022-08-14T21:57:06;22.60;99.90
14049;DHT22;7099;53.922;10.728;2022-08-14T22:01:38;22.60;99.90
14049;DHT22;7099;53.922;10.728;2022-08-14T22:06:24;22.50;99.90
14049;DHT22;7099;53.922;10.728;2022-08-14T22:10:54;22.50;99.90
14049;DHT22;7099;53.922;10.728;2022-08-14T22:15:20;22.40;99.90
14049;DHT22;7099;53.922;10.728;2022-08-14T22:19:46;22.40;99.90
14049;DHT22;7099;53.922;10.728;2022-08-14T22:24:19;22.40;99.90
14049;DHT22;7099;53.922;10.728;2022-08-14T22:29:06;22.30;99.90
14049;DHT22;7099;53.922;10.728;2022-08-14T22:33:33;22.20;99.90
14049;DHT22;7099;53.922;10.728;2022-08-14T22:37:59;22.10;99.90
14049;DHT22;7099;53.922;10.728;2022-08-14T22:42:44;22.10;99.90
14049;DHT22;7099;53.922;10.728;2022-08-14T22:47:29;22.00;99.90
14049;DHT22;7099;53.922;10.728;2022-08-14T22:52:10;21.90;99.90
14049;DHT22;7099;53.922;10.728;2022-08-14T22:56:56;21.90;99.90
14049;DHT22;7099;53.922;10.728;2022-08-14T23:06:22;21.80;99.90
14049;DHT22;7099;53.922;10.728;2022-08-14T23:11:08;21.70;99.90
14049;DHT22;7099;53.922;10.728;2022-08-14T23:15:35;21.60;99.90
14049;DHT22;7099;53.922;10.728;2022-08-14T23:20:02;21.60;99.90
14049;DHT22;7099;53.922;10.728;2022-08-14T23:24:29;21.50;99.90
14049;DHT22;7099;53.922;10.728;2022-08-14T23:28:54;21.50;99.90
14049;DHT22;7099;53.922;10.728;2022-08-14T23:33:22;21.40;99.90
14049;DHT22;7099;53.922;10.728;2022-08-14T23:37:49;21.40;99.90
14049;DHT22;7099;53.922;10.728;2022-08-14T23:42:16;21.40;99.90
14049;DHT22;7099;53.922;10.728;2022-08-14T23:46:42;21.40;99.90
14049;DHT22;7099;53.922;10.728;2022-08-14T23:51:10;21.30;99.90
14049;DHT22;7099;53.922;10.728;2022-08-14T23:55:38;21.30;99.90
